Start, Louisiana
Current Conditions -  °F | °C
As of 6:53 AM on Saturday 20 Dec 2014 (Local Time) from KMLU Reporting Station
Haze Haze  
Wind Chill: 35°   Ceiling: Unl
Heat Index: 40°   Visibility: 6mi
Dew Point: 39°   Wind: 7mph
Humidity: 97%   Direction: 10°N
Pressure: 30.24"   Gusts: NA
Location:  32.49°N, 91.86°W
Report Text: KMLU 201253Z 01006KT 6SM BR CLR 04/04 A3024 RMK AO2 SLP239 T00440039
Loading
Personal Weather Stations






























Interactive Weather Map New forecast layout! Learn more

10-Day Weather Forecast

Advertisements
Track Severe Weather on mobile